createdAt,value
2015-12-24T00:00:11.964Z,0
2015-12-24T00:01:11.779Z,0
2015-12-24T00:02:11.984Z,0
2015-12-24T00:03:11.783Z,0
2015-12-24T00:04:11.772Z,0
2015-12-24T00:05:12.086Z,0
2015-12-24T00:06:11.714Z,0
2015-12-24T00:07:11.732Z,0
2015-12-24T00:08:11.657Z,0
2015-12-24T00:09:11.691Z,0
2015-12-24T00:10:11.616Z,0
2015-12-24T00:11:11.556Z,0
2015-12-24T00:12:11.605Z,0
2015-12-24T00:13:11.546Z,0
2015-12-24T00:14:11.486Z,0
2015-12-24T00:15:11.441Z,0
2015-12-24T00:16:11.414Z,0
2015-12-24T00:17:11.385Z,0
2015-12-24T00:18:11.372Z,0
2015-12-24T00:19:11.375Z,0
2015-12-24T00:20:11.783Z,0
2015-12-24T00:21:11.299Z,0
2015-12-24T00:22:11.255Z,0
2015-12-24T00:23:11.273Z,0
2015-12-24T00:24:11.229Z,0
2015-12-24T00:25:11.138Z,0
2015-12-24T00:26:11.125Z,0
2015-12-24T00:27:11.096Z,0
2015-12-24T00:28:11.053Z,0
2015-12-24T00:29:11.087Z,0
2015-12-24T00:30:11.043Z,0
2015-12-24T00:31:10.998Z,0
2015-12-24T00:32:10.938Z,0
2015-12-24T00:33:10.910Z,0
2015-12-24T00:34:10.929Z,0
2015-12-24T00:35:10.900Z,0
2015-12-24T00:36:10.825Z,0
2015-12-24T00:37:10.796Z,0
2015-12-24T00:38:10.815Z,0
2015-12-24T00:39:10.754Z,0
2015-12-24T00:40:10.695Z,0
2015-12-24T00:41:10.713Z,0
2015-12-24T00:42:10.701Z,0
2015-12-24T00:43:10.626Z,0
2015-12-24T00:44:10.643Z,0
2015-12-24T00:45:10.599Z,0
2015-12-24T00:46:10.540Z,0
2015-12-24T00:47:10.526Z,0
2015-12-24T00:48:10.467Z,0
2015-12-24T00:49:10.486Z,0
2015-12-24T00:50:10.457Z,0
2015-12-24T00:51:10.413Z,0
2015-12-24T00:52:10.384Z,0
2015-12-24T00:53:09.606Z,0
2015-12-24T00:54:10.312Z,0
2015-12-24T00:55:10.284Z,0
2015-12-24T00:56:10.270Z,0
2015-12-24T00:57:10.242Z,0
2015-12-24T00:58:10.198Z,0
2015-12-24T00:59:10.154Z,0
2015-12-24T01:00:10.125Z,0
2015-12-24T01:01:10.112Z,0
2015-12-24T01:02:10.146Z,0
2015-12-24T01:03:10.023Z,0
2015-12-24T01:04:10.010Z,0
2015-12-24T01:05:10.029Z,0
2015-12-24T01:06:10.048Z,0
2015-12-24T01:07:09.941Z,0
2015-12-24T01:08:09.881Z,0
2015-12-24T01:09:09.883Z,0
2015-12-24T01:10:09.870Z,0
2015-12-24T01:11:09.808Z,0
2015-12-24T01:12:09.842Z,0
2015-12-24T01:13:09.736Z,0
2015-12-24T01:14:09.739Z,0
2015-12-24T01:15:09.678Z,0
2015-12-24T01:16:09.697Z,0
2015-12-24T01:17:09.622Z,0
2015-12-24T01:18:09.639Z,0
2015-12-24T01:19:09.564Z,0
2015-12-24T01:20:09.536Z,0
2015-12-24T01:21:09.508Z,0
2015-12-24T01:22:30.998Z,0
2015-12-24T01:23:09.514Z,0
2015-12-24T01:24:09.422Z,0
2015-12-24T01:25:09.393Z,0
2015-12-24T01:26:09.365Z,0
2015-12-24T01:27:09.322Z,0
2015-12-24T01:28:09.433Z,0
2015-12-24T01:29:09.341Z,0
2015-12-24T01:30:09.298Z,0
2015-12-24T01:31:09.207Z,0
2015-12-24T01:32:09.022Z,0
2015-12-24T01:33:09.166Z,0
2015-12-24T01:34:09.138Z,0
2015-12-24T01:35:09.141Z,0
2015-12-24T01:36:09.079Z,0
2015-12-24T01:37:09.035Z,0
2015-12-24T01:38:09.069Z,0
2015-12-24T01:39:09.010Z,0
2015-12-24T01:40:08.949Z,0
2015-12-24T01:41:08.921Z,0
2015-12-24T01:42:08.955Z,0
2015-12-24T01:43:08.850Z,0
2015-12-24T01:44:08.836Z,0
2015-12-24T01:45:08.838Z,0
2015-12-24T01:46:08.779Z,0
2015-12-24T01:47:08.751Z,0
2015-12-24T01:48:08.754Z,0
2015-12-24T01:49:08.724Z,0
2015-12-24T01:50:08.650Z,0
2015-12-24T01:51:08.715Z,0
2015-12-24T01:52:08.608Z,0
2015-12-24T01:53:08.549Z,0
2015-12-24T01:54:08.551Z,0
2015-12-24T01:55:08.538Z,0
2015-12-24T01:56:08.478Z,0
2015-12-24T01:57:08.466Z,0
2015-12-24T01:58:08.859Z,0
2015-12-24T01:59:08.409Z,0
2015-12-24T02:00:08.333Z,0
2015-12-24T02:01:08.304Z,0
2015-12-24T02:02:08.572Z,0
2015-12-24T02:03:08.275Z,0
2015-12-24T02:04:08.232Z,0
2015-12-24T02:05:08.188Z,0
2015-12-24T02:06:08.206Z,0
2015-12-24T02:07:08.225Z,0
2015-12-24T02:08:08.103Z,0
2015-12-24T02:09:08.089Z,0
2015-12-24T02:10:08.061Z,0
2015-12-24T02:11:08.048Z,0
2015-12-24T02:12:07.988Z,0
2015-12-24T02:13:07.960Z,0
2015-12-24T02:14:07.807Z,0
2015-12-24T02:15:07.778Z,0
2015-12-24T02:16:07.889Z,0
2015-12-24T02:17:07.878Z,0
2015-12-24T02:18:07.865Z,0
2015-12-24T02:19:07.805Z,0
2015-12-24T02:20:08.089Z,0
2015-12-24T02:21:07.732Z,0
2015-12-24T02:22:07.687Z,0
2015-12-24T02:23:07.862Z,0
2015-12-24T02:24:07.708Z,0
2015-12-24T02:25:07.446Z,0
2015-12-24T02:26:07.573Z,0
2015-12-24T02:27:07.530Z,0
2015-12-24T02:28:07.595Z,0
2015-12-24T02:29:07.535Z,0
2015-12-24T02:30:07.475Z,0
2015-12-24T02:31:07.462Z,0
2015-12-24T02:32:07.418Z,0
2015-12-24T02:33:07.421Z,0
2015-12-24T02:34:07.393Z,0
2015-12-24T02:35:07.333Z,0
2015-12-24T02:36:07.148Z,0
2015-12-24T02:37:06.511Z,0
2015-12-24T02:38:07.217Z,0
2015-12-24T02:39:07.203Z,0
2015-12-24T02:40:07.175Z,0
2015-12-24T02:41:07.130Z,0
2015-12-24T02:42:07.102Z,0
2015-12-24T02:43:07.088Z,0
2015-12-24T02:44:06.920Z,0
2015-12-24T02:45:07.079Z,0
2015-12-24T02:46:06.988Z,0
2015-12-24T02:47:06.991Z,0
2015-12-24T02:48:06.963Z,0
2015-12-24T02:49:06.918Z,0
2015-12-24T02:50:06.858Z,0
2015-12-24T02:51:06.876Z,0
2015-12-24T02:52:06.816Z,0
2015-12-24T02:53:06.866Z,0
2015-12-24T02:54:06.760Z,0
2015-12-24T02:55:06.715Z,0
2015-12-24T02:56:06.702Z,0
2015-12-24T02:57:06.690Z,0
2015-12-24T02:58:07.083Z,0
2015-12-24T02:59:06.599Z,0
2015-12-24T03:00:06.570Z,0
2015-12-24T03:01:06.557Z,0
2015-12-24T03:02:06.762Z,0
2015-12-24T03:03:06.484Z,0
2015-12-24T03:04:06.440Z,0
2015-12-24T03:05:06.459Z,0
2015-12-24T03:06:06.461Z,0
2015-12-24T03:07:06.354Z,0
2015-12-24T03:08:06.373Z,0
2015-12-24T03:09:06.345Z,0
2015-12-24T03:10:06.269Z,0
2015-12-24T03:11:06.225Z,0
2015-12-24T03:12:06.196Z,0
2015-12-24T03:13:06.245Z,0
2015-12-24T03:14:06.201Z,0
2015-12-24T03:15:06.173Z,0
2015-12-24T03:16:06.129Z,0
2015-12-24T03:17:06.053Z,0
2015-12-24T03:18:06.072Z,0
2015-12-24T03:19:06.012Z,0
2015-12-24T03:20:06.015Z,0
2015-12-24T03:21:05.955Z,0
2015-12-24T03:22:05.973Z,0
2015-12-24T03:23:05.914Z,0
2015-12-24T03:24:05.854Z,0
2015-12-24T03:25:05.825Z,0
2015-12-24T03:26:05.859Z,0
2015-12-24T03:27:05.800Z,0
2015-12-24T03:28:05.755Z,0
2015-12-24T03:29:05.727Z,0
2015-12-24T03:30:05.745Z,0
2015-12-24T03:31:05.686Z,0
2015-12-24T03:32:05.610Z,0
2015-12-24T03:33:05.597Z,0
2015-12-24T03:34:05.553Z,0
2015-12-24T03:35:05.541Z,0
2015-12-24T03:36:05.496Z,0
2015-12-24T03:37:05.452Z,0
2015-12-24T03:38:05.439Z,0
2015-12-24T03:39:05.427Z,0
2015-12-24T03:40:05.367Z,0
2015-12-24T03:41:05.354Z,0
2015-12-24T03:42:05.341Z,0
2015-12-24T03:43:05.281Z,0
2015-12-24T03:44:05.253Z,0
2015-12-24T03:45:05.240Z,0
2015-12-24T03:46:05.196Z,0
2015-12-24T03:47:05.245Z,0
2015-12-24T03:48:05.124Z,0
2015-12-24T03:49:05.094Z,0
2015-12-24T03:50:05.097Z,0
2015-12-24T03:51:05.085Z,0
2015-12-24T03:52:04.993Z,0
2015-12-24T03:53:05.012Z,0
2015-12-24T03:54:04.968Z,0
2015-12-24T03:55:04.954Z,0
2015-12-24T03:56:04.895Z,0
2015-12-24T03:57:04.882Z,0
2015-12-24T03:58:04.946Z,0
2015-12-24T03:59:04.837Z,0
2015-12-24T04:00:04.762Z,0
2015-12-24T04:01:04.734Z,0
2015-12-24T04:02:04.720Z,0
2015-12-24T04:03:04.693Z,0
2015-12-24T04:04:04.680Z,0
2015-12-24T04:05:04.667Z,0
2015-12-24T04:06:04.576Z,0
2015-12-24T04:07:04.578Z,0
2015-12-24T04:08:04.518Z,0
2015-12-24T04:09:04.506Z,0
2015-12-24T04:10:04.493Z,0
2015-12-24T04:11:04.496Z,0
2015-12-24T04:12:04.405Z,0
2015-12-24T04:13:04.393Z,0
2015-12-24T04:14:04.363Z,0
2015-12-24T04:15:04.319Z,0
2015-12-24T04:16:04.323Z,0
2015-12-24T04:17:04.200Z,0
2015-12-24T04:18:04.218Z,0
2015-12-24T04:19:04.221Z,0
2015-12-24T04:20:04.193Z,0
2015-12-24T04:21:04.148Z,0
2015-12-24T04:22:04.120Z,0
2015-12-24T04:23:04.467Z,0
2015-12-24T04:24:04.079Z,0
2015-12-24T04:25:04.065Z,0
2015-12-24T04:26:04.021Z,0
2015-12-24T04:27:03.978Z,0
2015-12-24T04:28:03.808Z,0
2015-12-24T04:29:03.904Z,0
2015-12-24T04:30:03.861Z,0
2015-12-24T04:31:03.909Z,0
2015-12-24T04:32:03.850Z,0
2015-12-24T04:33:03.619Z,0
2015-12-24T04:34:03.747Z,0
2015-12-24T04:35:03.953Z,0
2015-12-24T04:36:03.720Z,0
2015-12-24T04:37:03.661Z,0
2015-12-24T04:38:03.632Z,0
2015-12-24T04:39:03.636Z,0
2015-12-24T04:40:03.622Z,0
2015-12-24T04:41:03.547Z,0
2015-12-24T04:42:03.503Z,0
2015-12-24T04:43:03.474Z,0
2015-12-24T04:44:03.461Z,0
2015-12-24T04:45:03.464Z,0
2015-12-24T04:46:03.388Z,0
2015-12-24T04:47:03.360Z,0
2015-12-24T04:48:03.347Z,0
2015-12-24T04:49:03.365Z,0
2015-12-24T04:50:03.130Z,0
2015-12-24T04:51:04.680Z,0
2015-12-24T04:52:03.261Z,0
2015-12-24T04:53:03.233Z,0
2015-12-24T04:54:03.189Z,0
2015-12-24T04:55:03.129Z,0
2015-12-24T04:56:03.116Z,0
2015-12-24T04:57:03.446Z,0
2015-12-24T04:58:03.027Z,0
2015-12-24T04:59:03.015Z,0
2015-12-24T05:00:03.315Z,0
2015-12-24T05:01:11.974Z,0
2015-12-24T05:02:02.899Z,0
2015-12-24T05:03:02.714Z,0
2015-12-24T05:04:02.857Z,0
2015-12-24T05:05:02.829Z,0
2015-12-24T05:06:02.878Z,0
2015-12-24T05:07:02.772Z,0
2015-12-24T05:08:02.774Z,0
2015-12-24T05:09:02.746Z,0
2015-12-24T05:10:02.671Z,0
2015-12-24T05:11:02.673Z,0
2015-12-24T05:12:02.629Z,0
2015-12-24T05:13:02.616Z,0
2015-12-24T05:14:15.338Z,0
2015-12-24T05:15:02.512Z,0
2015-12-24T05:16:02.499Z,0
2015-12-24T05:17:02.470Z,0
2015-12-24T05:18:02.254Z,0
2015-12-24T05:19:02.461Z,0
2015-12-24T05:20:02.385Z,0
2015-12-24T05:21:02.388Z,0
2015-12-24T05:22:02.297Z,0
2015-12-24T05:23:02.284Z,0
2015-12-24T05:24:02.256Z,0
2015-12-24T05:25:02.243Z,0
2015-12-24T05:26:02.182Z,0
2015-12-24T05:27:02.217Z,0
2015-12-24T05:28:02.110Z,0
2015-12-24T05:29:02.113Z,0
2015-12-24T05:30:02.069Z,0
2015-12-24T05:31:02.056Z,0
2015-12-24T05:32:02.012Z,0
2015-12-24T05:33:01.998Z,0
2015-12-24T05:34:01.954Z,0
2015-12-24T05:35:01.926Z,0
2015-12-24T05:36:01.882Z,0
2015-12-24T05:37:01.854Z,0
2015-12-24T05:38:01.823Z,0
2015-12-24T05:39:01.794Z,0
2015-12-24T05:40:01.765Z,0
2015-12-24T05:41:01.721Z,0
2015-12-24T05:42:01.693Z,0
2015-12-24T05:43:01.680Z,0
2015-12-24T05:44:01.683Z,0
2015-12-24T05:45:01.638Z,0
2015-12-24T05:46:01.594Z,0
2015-12-24T05:47:01.567Z,0
2015-12-24T05:48:01.537Z,0
2015-12-24T05:49:01.509Z,0
2015-12-24T05:50:01.495Z,0
2015-12-24T05:51:01.420Z,0
2015-12-24T05:52:01.408Z,0
2015-12-24T05:53:01.410Z,0
2015-12-24T05:54:01.335Z,0
2015-12-24T05:55:01.353Z,0
2015-12-24T05:56:01.325Z,0
2015-12-24T05:57:01.265Z,0
2015-12-24T05:58:01.206Z,0
2015-12-24T05:59:01.177Z,0
2015-12-24T06:00:01.148Z,0
2015-12-24T06:01:01.213Z,0
2015-12-24T06:02:01.122Z,0
2015-12-24T06:03:01.063Z,0
2015-12-24T06:04:01.034Z,0
2015-12-24T06:05:00.991Z,0
2015-12-24T06:06:01.056Z,0
2015-12-24T06:07:00.934Z,0
2015-12-24T06:08:00.920Z,0
2015-12-24T06:09:00.892Z,0
2015-12-24T06:10:00.926Z,0
2015-12-24T06:11:00.851Z,0
2015-12-24T06:12:00.791Z,0
2015-12-24T06:13:00.747Z,0
2015-12-24T06:14:00.765Z,0
2015-12-24T06:15:00.580Z,0
2015-12-24T06:16:00.661Z,0
2015-12-24T06:17:00.680Z,0
2015-12-24T06:18:00.651Z,0
2015-12-24T06:19:00.591Z,0
2015-12-24T06:20:00.563Z,0
2015-12-24T06:21:00.518Z,0
2015-12-24T06:22:00.490Z,0
2015-12-24T06:23:00.477Z,0
2015-12-24T06:24:00.415Z,0
2015-12-24T06:25:00.402Z,0
2015-12-24T06:26:00.248Z,0
2015-12-24T06:27:00.361Z,0
2015-12-24T06:28:00.316Z,0
2015-12-24T06:29:00.272Z,0
2015-12-24T06:30:00.260Z,0
2015-12-24T06:31:00.247Z,0
2015-12-24T06:32:00.187Z,0
2015-12-24T06:33:00.158Z,0
2015-12-24T06:34:00.160Z,0
2015-12-24T06:35:00.055Z,0
2015-12-24T06:36:00.057Z,0
2015-12-24T06:37:00.044Z,0
2015-12-24T06:38:00.031Z,0
2015-12-24T06:38:59.972Z,0
2015-12-24T06:39:59.943Z,0
2015-12-24T06:40:59.915Z,0
2015-12-24T06:41:59.902Z,0
2015-12-24T06:42:59.857Z,0
2015-12-24T06:43:59.813Z,0
2015-12-24T06:44:59.862Z,0
2015-12-24T06:45:59.787Z,0
2015-12-24T06:46:59.743Z,0
2015-12-24T06:47:59.699Z,0
2015-12-24T06:48:59.733Z,0
2015-12-24T06:49:59.657Z,0
2015-12-24T06:50:59.614Z,0
2015-12-24T06:51:59.585Z,0
2015-12-24T06:52:59.573Z,0
2015-12-24T06:53:59.544Z,0
2015-12-24T06:54:59.516Z,0
2015-12-24T06:55:59.456Z,0
2015-12-24T06:56:59.443Z,0
2015-12-24T06:57:59.446Z,0
2015-12-24T06:58:59.448Z,0
2015-12-24T06:59:59.326Z,0
2015-12-24T07:00:59.298Z,0
2015-12-24T07:01:59.301Z,0
2015-12-24T07:02:59.256Z,0
2015-12-24T07:03:59.353Z,0
2015-12-24T07:04:59.309Z,0
2015-12-24T07:05:59.217Z,0
2015-12-24T07:06:59.189Z,0
2015-12-24T07:07:59.098Z,0
2015-12-24T07:08:59.070Z,0
2015-12-24T07:09:59.041Z,0
2015-12-24T07:10:59.028Z,0
2015-12-24T07:11:58.965Z,0
2015-12-24T07:12:58.952Z,0
2015-12-24T07:13:58.909Z,0
2015-12-24T07:14:58.896Z,0
2015-12-24T07:15:58.883Z,0
2015-12-24T07:16:58.823Z,0
2015-12-24T07:17:58.779Z,0
2015-12-24T07:18:58.781Z,0
2015-12-24T07:19:58.753Z,0
2015-12-24T07:20:58.694Z,0
2015-12-24T07:21:58.665Z,0
2015-12-24T07:22:58.636Z,0
2015-12-24T07:23:58.624Z,0
2015-12-24T07:24:58.626Z,0
2015-12-24T07:25:58.550Z,0
2015-12-24T07:26:58.553Z,0
2015-12-24T07:27:58.478Z,0
2015-12-24T07:28:58.480Z,0
2015-12-24T07:29:58.453Z,0
2015-12-24T07:30:58.486Z,0
2015-12-24T07:31:58.364Z,0
2015-12-24T07:32:58.336Z,0
2015-12-24T07:33:58.322Z,0
2015-12-24T07:34:58.310Z,0
2015-12-24T07:35:58.281Z,0
2015-12-24T07:36:58.237Z,0
2015-12-24T07:37:58.208Z,0
2015-12-24T07:38:58.196Z,0
2015-12-24T07:39:58.167Z,0
2015-12-24T07:40:58.091Z,0
2015-12-24T07:41:58.080Z,0
2015-12-24T07:42:58.050Z,0
2015-12-24T07:43:58.038Z,0
2015-12-24T07:44:57.853Z,0
2015-12-24T07:45:57.996Z,0
2015-12-24T07:46:57.922Z,0
2015-12-24T07:47:57.924Z,0
2015-12-24T07:48:57.849Z,0
2015-12-24T07:49:57.867Z,0
2015-12-24T07:50:57.808Z,0
2015-12-24T07:51:57.810Z,0
2015-12-24T07:52:57.750Z,0
2015-12-24T07:53:57.691Z,0
2015-12-24T07:54:57.694Z,0
2015-12-24T07:55:57.883Z,0
2015-12-24T07:56:58.374Z,0
2015-12-24T07:57:57.628Z,0
2015-12-24T07:58:57.538Z,0
2015-12-24T07:59:57.428Z,0
2015-12-24T08:00:57.526Z,0
2015-12-24T08:01:57.404Z,0
2015-12-24T08:02:57.417Z,0
2015-12-24T08:03:57.353Z,0
2015-12-24T08:04:57.335Z,0
2015-12-24T08:05:57.348Z,0
2015-12-24T08:06:57.221Z,0
2015-12-24T08:07:57.222Z,0
2015-12-24T08:08:57.253Z,0
2015-12-24T08:09:57.144Z,0
2015-12-24T08:10:57.068Z,0
2015-12-24T08:11:57.101Z,0
2015-12-24T08:12:57.086Z,0
2015-12-24T08:13:57.025Z,0
2015-12-24T08:14:56.981Z,0
2015-12-24T08:15:56.984Z,0
2015-12-24T08:16:57.406Z,0
2015-12-24T08:17:57.113Z,0
2015-12-24T08:18:57.005Z,0
2015-12-24T08:19:56.836Z,0
2015-12-24T08:20:56.776Z,0
2015-12-24T08:21:56.747Z,0
2015-12-24T08:22:56.703Z,0
2015-12-24T08:23:56.690Z,0
2015-12-24T08:24:56.677Z,0
2015-12-24T08:25:56.633Z,0
2015-12-24T08:26:56.590Z,0
2015-12-24T08:27:56.607Z,0
2015-12-24T08:28:56.579Z,0
2015-12-24T08:29:56.519Z,0
2015-12-24T08:30:56.475Z,0
2015-12-24T08:31:56.445Z,0
2015-12-24T08:32:56.418Z,0
2015-12-24T08:33:56.436Z,0
2015-12-24T08:34:56.345Z,0
2015-12-24T08:35:56.317Z,5
2015-12-24T08:36:56.319Z,5
2015-12-24T08:37:56.275Z,5
2015-12-24T08:38:56.215Z,5
2015-12-24T08:39:56.187Z,5
2015-12-24T08:40:56.237Z,5
2015-12-24T08:41:59.411Z,5
2015-12-24T08:42:56.335Z,5
2015-12-24T08:43:56.339Z,5
2015-12-24T08:44:56.279Z,5
2015-12-24T08:45:56.201Z,5
2015-12-24T08:46:56.203Z,5
2015-12-24T08:47:55.300Z,5
2015-12-24T08:48:55.943Z,5
2015-12-24T08:49:55.961Z,5
2015-12-24T08:50:55.870Z,5
2015-12-24T08:51:55.826Z,5
2015-12-24T08:52:55.829Z,5
2015-12-24T08:53:55.817Z,5
2015-12-24T08:54:55.741Z,5
2015-12-24T08:55:55.713Z,5
2015-12-24T08:56:55.684Z,5
2015-12-24T08:57:55.655Z,5
2015-12-24T08:58:55.783Z,5
2015-12-24T08:59:55.911Z,5
2015-12-24T09:00:55.554Z,5
2015-12-24T09:01:55.557Z,5
2015-12-24T09:02:55.528Z,5
2015-12-24T09:03:55.453Z,5
2015-12-24T09:04:55.471Z,5
2015-12-24T09:05:55.411Z,5
2015-12-24T09:06:55.414Z,5
2015-12-24T09:07:55.338Z,5
2015-12-24T09:08:55.341Z,5
2015-12-24T09:09:55.313Z,5
2015-12-24T09:10:55.299Z,10
2015-12-24T09:11:55.224Z,5
2015-12-24T09:12:55.196Z,10
2015-12-24T09:13:55.199Z,5
2015-12-24T09:14:55.185Z,10
2015-12-24T09:15:55.407Z,10
2015-12-24T09:16:55.067Z,10
2015-12-24T09:17:55.054Z,10
2015-12-24T09:18:55.354Z,10
2015-12-24T09:19:55.013Z,10
2015-12-24T09:20:54.968Z,10
2015-12-24T09:21:54.909Z,10
2015-12-24T09:22:54.912Z,10
2015-12-24T09:23:55.165Z,10
2015-12-24T09:24:54.823Z,10
2015-12-24T09:25:54.826Z,10
2015-12-24T09:26:54.782Z,10
2015-12-24T09:27:54.784Z,10
2015-12-24T09:28:54.756Z,10
2015-12-24T09:29:54.712Z,10
2015-12-24T09:30:54.652Z,10
2015-12-24T09:31:54.654Z,10
2015-12-24T09:32:54.579Z,10
2015-12-24T09:33:54.551Z,15
2015-12-24T09:39:55.893Z,70
2015-12-24T09:40:55.958Z,75
2015-12-24T09:41:55.961Z,80
2015-12-24T09:42:55.901Z,85
2015-12-24T09:43:55.887Z,75
2015-12-24T09:44:55.891Z,70
2015-12-24T09:45:55.831Z,65
2015-12-24T09:46:55.771Z,60
2015-12-24T09:47:55.773Z,55
2015-12-24T09:48:56.089Z,40
2015-12-24T09:49:55.686Z,30
2015-12-24T09:50:55.673Z,25
2015-12-24T09:51:55.676Z,10
2015-12-24T09:52:55.616Z,10
2015-12-24T09:53:55.571Z,10
2015-12-24T09:54:55.542Z,10
2015-12-24T09:55:55.499Z,10
2015-12-24T09:56:55.845Z,10
2015-12-24T09:57:55.536Z,10
2015-12-24T09:58:55.414Z,10
2015-12-24T09:59:55.400Z,10
2015-12-24T10:00:55.592Z,10
2015-12-24T10:01:55.359Z,10
2015-12-24T10:02:55.361Z,10
2015-12-24T10:03:55.303Z,10
2015-12-24T10:04:55.258Z,10
2015-12-24T10:05:55.261Z,10
2015-12-24T10:06:55.248Z,10
2015-12-24T10:07:55.172Z,10
2015-12-24T10:08:55.192Z,10
2015-12-24T10:09:55.116Z,10
2015-12-24T10:10:55.056Z,10
2015-12-24T10:11:55.044Z,10
2015-12-24T10:12:54.905Z,10
2015-12-24T10:13:55.611Z,10
2015-12-24T10:14:55.317Z,10
2015-12-24T10:15:55.210Z,10
2015-12-24T10:16:55.150Z,10
2015-12-24T10:17:55.091Z,10
2015-12-24T10:18:55.109Z,10
2015-12-24T10:19:55.190Z,10
2015-12-24T10:20:55.411Z,10
2015-12-24T10:21:54.913Z,10
2015-12-24T10:22:55.839Z,10
2015-12-24T10:23:55.544Z,10
2015-12-24T10:24:54.813Z,10
2015-12-24T10:25:55.019Z,10
2015-12-24T10:26:54.771Z,10
2015-12-24T10:27:54.837Z,10
2015-12-24T10:28:55.214Z,10
2015-12-24T10:29:54.745Z,10
2015-12-24T10:30:54.763Z,10
2015-12-24T10:31:54.860Z,10
2015-12-24T10:32:54.691Z,10
2015-12-24T10:33:54.788Z,10
2015-12-24T10:34:57.650Z,15
2015-12-24T10:35:54.449Z,10
2015-12-24T10:36:54.343Z,15
2015-12-24T10:37:54.518Z,15
2015-12-24T10:38:54.443Z,15
2015-12-24T10:39:54.210Z,15
2015-12-24T10:40:54.198Z,15
2015-12-24T10:41:54.248Z,15
2015-12-24T10:42:54.485Z,15
2015-12-24T10:43:54.315Z,10
2015-12-24T10:44:54.427Z,15
2015-12-24T10:45:54.212Z,15
2015-12-24T10:46:54.198Z,5
2015-12-24T10:47:54.545Z,10
2015-12-24T10:48:54.407Z,10
2015-12-24T10:49:54.035Z,15
2015-12-24T10:50:54.443Z,15
2015-12-24T10:51:53.821Z,10
2015-12-24T10:52:54.356Z,5
2015-12-24T10:53:54.109Z,5
2015-12-24T10:54:54.079Z,5
2015-12-24T10:55:54.098Z,10
2015-12-24T10:56:54.070Z,5
2015-12-24T10:57:53.681Z,10
2015-12-24T10:58:54.122Z,10
2015-12-24T10:59:53.719Z,10
2015-12-24T11:00:53.877Z,10
2015-12-24T11:01:54.771Z,15
2015-12-24T11:02:53.837Z,15
2015-12-24T11:03:57.026Z,15
2015-12-24T11:04:53.451Z,15
2015-12-24T11:05:53.626Z,15
2015-12-24T11:06:53.566Z,15
2015-12-24T11:07:53.584Z,20
2015-12-24T11:08:53.587Z,20
2015-12-24T11:09:53.387Z,20
2015-12-24T11:10:53.561Z,20
2015-12-24T11:11:53.626Z,20
2015-12-24T11:12:53.363Z,25
2015-12-24T11:13:53.428Z,35
2015-12-24T11:14:53.181Z,45
2015-12-24T11:15:53.512Z,55
2015-12-24T11:16:53.264Z,65
2015-12-24T11:17:53.221Z,70
2015-12-24T11:18:53.080Z,80
2015-12-24T11:19:53.131Z,80
2015-12-24T11:20:53.632Z,85
2015-12-24T11:21:53.292Z,85
2015-12-24T11:22:52.998Z,85
2015-12-24T11:23:53.047Z,85
2015-12-24T11:24:53.253Z,85
2015-12-24T11:25:56.115Z,85
2015-12-24T11:26:53.165Z,85
2015-12-24T11:27:52.824Z,85
2015-12-24T11:28:52.749Z,85
2015-12-24T11:29:53.001Z,85
2015-12-24T11:30:53.083Z,85
2015-12-24T11:31:53.397Z,85
2015-12-24T11:32:52.603Z,85
2015-12-24T11:33:52.638Z,85
2015-12-24T11:34:52.655Z,85
2015-12-24T11:35:52.549Z,85
2015-12-24T11:36:52.488Z,85
2015-12-24T11:37:52.789Z,85
2015-12-24T11:38:52.447Z,85
2015-12-24T11:39:52.715Z,85
2015-12-24T11:40:52.374Z,85
2015-12-24T11:41:52.330Z,85
2015-12-24T11:42:52.302Z,80
2015-12-24T11:43:52.290Z,80
2015-12-24T11:44:52.230Z,80
2015-12-24T11:47:18.515Z,80
2015-12-24T11:47:52.504Z,80
2015-12-24T11:48:54.084Z,85
2015-12-24T11:49:52.337Z,85
2015-12-24T11:50:52.371Z,80
2015-12-24T11:51:52.248Z,80
2015-12-24T11:52:52.564Z,80
2015-12-24T11:53:52.051Z,80
2015-12-24T11:54:52.351Z,80
2015-12-24T11:55:51.978Z,80
2015-12-24T11:56:51.918Z,80
2015-12-24T11:57:51.937Z,80
2015-12-24T11:58:51.845Z,80
2015-12-24T11:59:51.879Z,75
2015-12-24T12:00:52.148Z,75
2015-12-24T12:01:51.744Z,75
2015-12-24T12:02:54.716Z,75
2015-12-24T12:03:51.687Z,70
2015-12-24T12:04:51.972Z,70
2015-12-24T12:05:51.645Z,65
2015-12-24T12:06:51.602Z,65
2015-12-24T12:07:51.572Z,60
2015-12-24T12:08:54.560Z,60
2015-12-24T12:09:51.531Z,55
2015-12-24T12:10:51.549Z,55
2015-12-24T12:11:54.443Z,55
2015-12-24T12:12:51.492Z,50
2015-12-24T12:13:51.496Z,50
2015-12-24T12:14:57.592Z,50
2015-12-24T12:15:51.345Z,50
2015-12-24T12:16:51.285Z,50
2015-12-24T12:17:52.178Z,50
2015-12-24T12:18:51.572Z,45
2015-12-24T12:19:51.543Z,30
2015-12-24T12:20:51.499Z,25
2015-12-24T12:22:38.362Z,20
2015-12-24T12:22:51.300Z,25
2015-12-24T12:23:54.709Z,10
2015-12-24T12:24:51.212Z,10
2015-12-24T12:25:51.262Z,55
2015-12-24T12:26:51.171Z,35
2015-12-24T12:27:54.159Z,50
2015-12-24T12:28:51.114Z,55
2015-12-24T12:29:54.101Z,55
2015-12-24T12:30:51.135Z,55
2015-12-24T12:31:51.137Z,55
2015-12-24T12:32:51.032Z,55
2015-12-24T12:33:50.971Z,55
2015-12-24T12:34:50.974Z,50
2015-12-24T12:35:51.181Z,50
2015-12-24T12:36:53.901Z,50
2015-12-24T12:37:54.514Z,50
2015-12-24T12:38:53.844Z,50
2015-12-24T12:39:50.832Z,50
2015-12-24T12:40:50.756Z,50
2015-12-24T12:41:50.728Z,45
2015-12-24T12:42:50.715Z,45
2015-12-24T12:43:50.748Z,45
2015-12-24T12:44:50.736Z,45
2015-12-24T12:45:50.957Z,45
2015-12-24T12:46:50.722Z,45
2015-12-24T12:47:51.117Z,40
2015-12-24T12:48:50.713Z,40
2015-12-24T12:49:50.544Z,40
2015-12-24T12:50:54.155Z,35
2015-12-24T12:51:50.814Z,35
2015-12-24T12:52:50.645Z,35
2015-12-24T12:53:50.742Z,35
2015-12-24T12:54:50.636Z,30
2015-12-24T12:55:53.623Z,30
2015-12-24T12:56:50.392Z,30
2015-12-24T12:57:50.613Z,30
2015-12-24T12:58:50.991Z,25
2015-12-24T12:59:50.368Z,25
2015-12-24T13:00:50.417Z,25
2015-12-24T13:01:50.154Z,25
2015-12-24T13:02:50.189Z,25
2015-12-24T13:03:51.050Z,25
2015-12-24T13:04:50.163Z,25
2015-12-24T13:05:50.493Z,25
2015-12-24T13:06:50.387Z,25
2015-12-24T13:07:50.155Z,25
2015-12-24T13:08:49.689Z,20
2015-12-24T13:09:50.036Z,20
2015-12-24T13:10:50.226Z,20
2015-12-24T13:11:50.243Z,25
2015-12-24T13:12:50.387Z,25
2015-12-24T13:13:50.046Z,25
2015-12-24T13:14:50.299Z,25
2015-12-24T13:15:50.099Z,25
2015-12-24T13:16:49.821Z,25
2015-12-24T13:17:49.760Z,25
2015-12-24T13:18:52.795Z,25
2015-12-24T13:19:50.265Z,25
2015-12-24T13:20:50.003Z,25
2015-12-24T13:21:49.833Z,25
2015-12-24T13:22:49.789Z,25
2015-12-24T13:23:52.667Z,20
2015-12-24T13:24:50.061Z,20
2015-12-24T13:25:53.031Z,20
2015-12-24T13:26:49.972Z,20
2015-12-24T13:27:49.850Z,20
2015-12-24T13:28:49.540Z,20
2015-12-24T13:29:50.403Z,20
2015-12-24T13:30:49.764Z,25
2015-12-24T13:31:49.486Z,25
2015-12-24T13:32:49.816Z,25
2015-12-24T13:33:49.288Z,25
2015-12-24T13:34:49.447Z,20
2015-12-24T13:35:49.216Z,20
2015-12-24T13:36:49.203Z,20
2015-12-24T13:37:49.235Z,20
2015-12-24T13:38:49.067Z,20
2015-12-24T13:39:49.085Z,15
2015-12-24T13:40:49.010Z,15
2015-12-24T13:41:49.293Z,15
2015-12-24T13:42:48.938Z,10
2015-12-24T13:43:51.815Z,10
2015-12-24T13:44:49.239Z,10
2015-12-24T13:45:49.007Z,10
2015-12-24T13:46:49.229Z,5
2015-12-24T13:47:49.154Z,5
2015-12-24T13:48:49.282Z,5
2015-12-24T13:49:49.019Z,5
2015-12-24T13:50:49.115Z,5
2015-12-24T13:51:48.977Z,5
2015-12-24T13:52:48.308Z,5
2015-12-24T13:53:48.592Z,5
2015-12-24T13:54:48.579Z,5
2015-12-24T13:55:48.566Z,5
2015-12-24T13:56:48.522Z,5
2015-12-24T13:57:48.510Z,5
2015-12-24T13:58:48.574Z,5
2015-12-24T13:59:48.609Z,5
2015-12-24T14:00:48.392Z,5
2015-12-24T14:01:48.395Z,5
2015-12-24T14:02:48.335Z,5
2015-12-24T14:03:48.354Z,0
2015-12-24T14:04:48.326Z,0
2015-12-24T14:05:48.312Z,0
2015-12-24T14:06:48.284Z,0
2015-12-24T14:07:48.193Z,0
2015-12-24T14:08:48.180Z,0
2015-12-24T14:09:47.401Z,0
2015-12-24T14:10:48.466Z,0
2015-12-24T14:11:48.094Z,0
2015-12-24T14:12:48.081Z,0
2015-12-24T14:13:48.006Z,0
2015-12-24T14:14:48.056Z,0
2015-12-24T14:15:47.965Z,0
2015-12-24T14:16:47.936Z,0
2015-12-24T14:17:47.970Z,0
2015-12-24T14:18:47.926Z,0
2015-12-24T14:19:47.897Z,0
2015-12-24T14:20:47.805Z,0
2015-12-24T14:21:47.808Z,0
2015-12-24T14:22:47.749Z,0
2015-12-24T14:23:47.752Z,0
2015-12-24T14:24:48.035Z,0
2015-12-24T14:25:47.680Z,0
2015-12-24T14:26:47.650Z,0
2015-12-24T14:27:47.607Z,0
2015-12-24T14:28:47.610Z,0
2015-12-24T14:29:47.565Z,0
2015-12-24T14:30:47.536Z,0
2015-12-24T14:31:47.523Z,0
2015-12-24T14:32:47.557Z,0
2015-12-24T14:33:47.479Z,0
2015-12-24T14:34:47.419Z,0
2015-12-24T14:35:47.422Z,0
2015-12-24T14:36:47.347Z,0
2015-12-24T14:37:47.334Z,0
2015-12-24T14:38:47.055Z,0
2015-12-24T14:39:47.261Z,0
2015-12-24T14:40:47.326Z,0
2015-12-24T14:41:47.203Z,0
2015-12-24T14:42:47.207Z,0